createdAt,value
2023-01-30T00:03:31.653Z,10.18
2023-01-30T00:05:59.207Z,10.63
2023-01-30T00:08:26.750Z,10.82
2023-01-30T00:13:21.476Z,10.13
2023-01-30T00:15:49.023Z,9.82
2023-01-30T00:18:16.554Z,10.35
2023-01-30T00:25:38.617Z,9.30
2023-01-30T00:28:06.174Z,10.07
2023-01-30T00:35:31.098Z,9.35
2023-01-30T00:37:59.836Z,9.77
2023-01-30T00:40:28.766Z,9.70
2023-01-30T00:43:14.911Z,10.27
2023-01-30T00:46:03.857Z,10.43
2023-01-30T00:48:32.000Z,9.50
2023-01-30T00:50:59.435Z,9.02
2023-01-30T00:53:28.196Z,10.90
2023-01-30T00:55:56.079Z,10.10
2023-01-30T00:58:25.022Z,9.82
2023-01-30T01:00:52.892Z,11.02
2023-01-30T01:03:20.770Z,10.15
2023-01-30T01:05:48.719Z,9.25
2023-01-30T01:08:16.815Z,9.00
2023-01-30T01:10:44.445Z,9.77
2023-01-30T01:13:12.171Z,9.55
2023-01-30T01:15:39.737Z,9.55
2023-01-30T01:18:07.482Z,10.10
2023-01-30T01:20:34.930Z,9.40
2023-01-30T01:23:03.721Z,9.43
2023-01-30T01:25:31.123Z,9.82
2023-01-30T01:32:53.276Z,9.07
2023-01-30T01:35:20.744Z,9.98
2023-01-30T01:43:17.464Z,8.70
2023-01-30T01:45:48.707Z,9.60
2023-01-30T01:48:22.590Z,9.65
2023-01-30T01:50:56.047Z,8.88
2023-01-30T01:53:30.215Z,10.20
2023-01-30T01:56:00.595Z,9.95
2023-01-30T01:58:39.694Z,9.68
2023-01-30T02:01:08.165Z,9.50
2023-01-30T02:03:42.047Z,9.98
2023-01-30T02:06:11.524Z,10.00
2023-01-30T02:08:41.337Z,9.30
2023-01-30T02:11:15.007Z,10.65
2023-01-30T02:13:44.296Z,10.38
2023-01-30T02:16:11.851Z,9.60
2023-01-30T02:18:42.116Z,10.10
2023-01-30T02:21:40.733Z,10.07
2023-01-30T02:24:55.476Z,9.90
2023-01-30T02:27:32.325Z,9.75
2023-01-30T02:30:16.603Z,10.73
2023-01-30T02:32:54.708Z,10.05
2023-01-30T02:35:57.563Z,10.70
2023-01-30T02:38:57.822Z,10.63
2023-01-30T02:41:44.307Z,10.35
2023-01-30T02:44:22.971Z,10.80
2023-01-30T02:47:07.413Z,10.57
2023-01-30T02:49:38.705Z,10.25
2023-01-30T02:52:11.789Z,11.00
2023-01-30T02:54:39.472Z,11.20
2023-01-30T02:57:36.658Z,10.93
2023-01-30T03:00:06.304Z,10.90
2023-01-30T03:03:07.240Z,10.90
2023-01-30T03:05:50.418Z,10.95
2023-01-30T03:08:47.178Z,10.77
2023-01-30T03:11:45.343Z,11.07
2023-01-30T03:14:26.292Z,10.40
2023-01-30T03:16:57.728Z,10.57
2023-01-30T03:19:28.930Z,10.27
2023-01-30T03:21:56.631Z,11.00
2023-01-30T03:24:25.377Z,10.77
2023-01-30T03:27:02.845Z,10.98
2023-01-30T03:29:30.643Z,10.57
2023-01-30T03:31:58.193Z,10.93
2023-01-30T03:34:25.852Z,10.85
2023-01-30T03:36:53.281Z,11.05
2023-01-30T03:39:26.025Z,10.48
2023-01-30T03:41:54.604Z,9.82
2023-01-30T03:44:22.883Z,10.70
2023-01-30T03:46:50.401Z,10.45
2023-01-30T03:49:19.060Z,10.00
2023-01-30T03:51:47.527Z,10.43
2023-01-30T03:54:15.118Z,10.90
2023-01-30T03:56:42.594Z,11.10
2023-01-30T04:01:43.120Z,10.98
2023-01-30T04:04:10.832Z,10.45
2023-01-30T04:09:05.895Z,10.55
2023-01-30T04:11:39.099Z,9.90
2023-01-30T04:14:06.797Z,10.02
2023-01-30T04:16:42.479Z,10.48
2023-01-30T04:19:45.018Z,11.20
2023-01-30T04:22:13.316Z,11.25
2023-01-30T04:24:41.316Z,11.50
2023-01-30T04:27:09.436Z,10.20
2023-01-30T04:29:42.600Z,11.07
2023-01-30T04:32:12.109Z,10.32
2023-01-30T04:34:39.962Z,10.93
2023-01-30T04:37:07.693Z,10.35
2023-01-30T04:42:02.669Z,10.70
2023-01-30T04:44:33.904Z,10.18
2023-01-30T04:47:11.604Z,9.75
2023-01-30T04:49:39.307Z,10.50
2023-01-30T04:52:07.365Z,10.25
2023-01-30T04:54:36.810Z,9.27
2023-01-30T04:59:32.204Z,9.45
2023-01-30T05:02:03.237Z,10.02
2023-01-30T05:04:30.710Z,9.88
2023-01-30T05:06:58.081Z,9.30
2023-01-30T05:09:27.036Z,10.02
2023-01-30T05:11:54.503Z,9.43
2023-01-30T05:16:49.473Z,8.43
2023-01-30T05:19:17.081Z,8.18
2023-01-30T05:24:11.846Z,8.57
2023-01-30T05:29:06.781Z,8.32
2023-01-30T05:31:35.792Z,7.72
2023-01-30T05:34:03.396Z,8.15
2023-01-30T05:41:25.387Z,7.63
2023-01-30T05:43:52.830Z,7.78
2023-01-30T05:48:47.779Z,7.47
2023-01-30T05:53:47.445Z,7.32
2023-01-30T05:56:15.581Z,7.00
2023-01-30T05:58:43.629Z,7.68
2023-01-30T06:01:13.169Z,6.72
2023-01-30T06:03:40.814Z,6.90
2023-01-30T06:06:08.579Z,6.40
2023-01-30T06:08:36.041Z,6.85
2023-01-30T06:13:31.733Z,6.30
2023-01-30T06:20:54.636Z,5.60
2023-01-30T06:23:23.702Z,6.57
2023-01-30T06:25:52.414Z,7.13
2023-01-30T06:28:21.837Z,6.07
2023-01-30T06:30:49.520Z,7.18
2023-01-30T06:33:17.602Z,6.25
2023-01-30T06:35:45.453Z,6.85
2023-01-30T06:38:14.300Z,6.78
2023-01-30T06:40:45.372Z,7.78
2023-01-30T06:43:12.889Z,8.57
2023-01-30T06:48:08.766Z,7.32
2023-01-30T06:50:36.850Z,8.02
2023-01-30T06:53:06.517Z,7.65
2023-01-30T06:55:35.953Z,7.75
2023-01-30T06:58:06.417Z,7.40
2023-01-30T07:00:34.853Z,8.55
2023-01-30T07:03:02.656Z,8.27
2023-01-30T07:05:30.252Z,8.25
2023-01-30T07:07:58.061Z,9.13
2023-01-30T07:10:26.423Z,8.35
2023-01-30T07:12:54.030Z,8.15
2023-01-30T07:17:49.025Z,9.43
2023-01-30T07:20:16.847Z,9.10
2023-01-30T07:22:52.736Z,9.85
2023-01-30T07:25:22.357Z,9.75
2023-01-30T07:27:57.842Z,9.30
2023-01-30T07:30:27.413Z,9.43
2023-01-30T07:32:58.066Z,9.38
2023-01-30T07:35:28.844Z,9.23
2023-01-30T07:37:56.426Z,10.52
2023-01-30T07:40:24.714Z,10.30
2023-01-30T07:42:58.985Z,9.90
2023-01-30T07:45:41.581Z,9.77
2023-01-30T07:48:11.718Z,10.07
2023-01-30T07:50:39.539Z,9.45
2023-01-30T07:53:10.196Z,8.95
2023-01-30T07:55:38.327Z,9.43
2023-01-30T07:58:05.945Z,8.82
2023-01-30T08:00:34.272Z,8.90
2023-01-30T08:03:01.732Z,9.23
2023-01-30T08:05:29.360Z,8.70
2023-01-30T08:07:57.231Z,8.90
2023-01-30T08:10:24.968Z,8.82
2023-01-30T08:12:52.550Z,9.90
2023-01-30T08:15:22.760Z,10.07
2023-01-30T08:17:57.639Z,9.25
2023-01-30T08:20:26.520Z,9.70
2023-01-30T08:22:54.710Z,9.85
2023-01-30T08:25:23.043Z,8.52
2023-01-30T08:27:51.303Z,9.60
2023-01-30T08:30:20.203Z,9.57
2023-01-30T08:32:48.491Z,9.00
2023-01-30T08:35:16.168Z,8.90
2023-01-30T08:37:43.871Z,9.07
2023-01-30T08:40:12.100Z,8.98
2023-01-30T08:42:39.655Z,9.50
2023-01-30T08:45:07.855Z,9.13
2023-01-30T08:47:35.773Z,8.13
2023-01-30T08:50:04.980Z,8.25
2023-01-30T08:52:33.273Z,9.25
2023-01-30T08:55:01.022Z,9.65
2023-01-30T08:57:28.663Z,9.02
2023-01-30T08:59:56.175Z,8.82
2023-01-30T09:02:23.822Z,8.60
2023-01-30T09:04:51.238Z,9.95
2023-01-30T09:07:19.228Z,11.10
2023-01-30T09:09:48.679Z,9.82
2023-01-30T09:12:16.153Z,9.35
2023-01-30T09:17:10.927Z,9.45
2023-01-30T09:22:07.965Z,8.18
2023-01-30T09:24:35.597Z,8.75
2023-01-30T09:27:03.148Z,9.32
2023-01-30T09:29:30.731Z,8.07
2023-01-30T09:34:28.869Z,8.45
2023-01-30T09:37:04.816Z,7.95
2023-01-30T09:39:32.709Z,7.93
2023-01-30T09:44:59.678Z,6.82
2023-01-30T09:47:48.922Z,7.28
2023-01-30T09:50:39.974Z,6.30
2023-01-30T09:53:30.298Z,6.82
2023-01-30T09:56:01.783Z,6.90
2023-01-30T09:58:56.086Z,7.35
2023-01-30T10:01:34.623Z,6.93
2023-01-30T10:04:40.342Z,6.82
2023-01-30T10:07:10.973Z,6.90
2023-01-30T10:10:10.358Z,6.22
2023-01-30T10:12:44.558Z,5.95
2023-01-30T10:15:51.614Z,6.35
2023-01-30T10:18:34.204Z,5.40
2023-01-30T10:21:24.764Z,5.93
2023-01-30T10:24:25.049Z,6.00
2023-01-30T10:26:53.635Z,6.50
2023-01-30T10:29:23.669Z,5.60
2023-01-30T10:32:00.562Z,6.43
2023-01-30T10:34:40.447Z,6.70
2023-01-30T10:37:20.783Z,5.88
2023-01-30T10:40:10.968Z,5.80
2023-01-30T10:43:24.021Z,5.50
2023-01-30T10:45:56.991Z,5.30
2023-01-30T10:48:45.743Z,5.80
2023-01-30T10:51:34.349Z,6.35
2023-01-30T10:54:13.505Z,7.22
2023-01-30T10:57:12.517Z,5.68
2023-01-30T11:00:03.004Z,5.75
2023-01-30T11:03:18.218Z,5.40
2023-01-30T11:05:53.187Z,5.25
2023-01-30T11:08:26.507Z,4.72
2023-01-30T11:10:56.089Z,5.50
2023-01-30T11:13:32.071Z,5.07
2023-01-30T11:16:07.277Z,5.55
2023-01-30T11:21:43.436Z,4.70
2023-01-30T11:24:18.263Z,4.50
2023-01-30T11:26:48.460Z,4.95
2023-01-30T11:29:31.445Z,5.20
2023-01-30T11:32:13.025Z,4.70
2023-01-30T11:34:43.389Z,5.45
2023-01-30T11:37:23.558Z,4.82
2023-01-30T11:39:52.719Z,4.72
2023-01-30T11:42:31.087Z,5.28
2023-01-30T11:45:16.140Z,5.00
2023-01-30T11:47:57.639Z,5.30
2023-01-30T11:50:36.365Z,5.03
2023-01-30T11:53:20.964Z,4.90
2023-01-30T11:56:02.211Z,4.63
2023-01-30T11:58:33.653Z,4.72
2023-01-30T12:01:02.393Z,5.10
2023-01-30T12:03:30.601Z,4.65
2023-01-30T12:05:59.125Z,5.18
2023-01-30T12:08:43.605Z,4.72
2023-01-30T12:11:32.208Z,4.55
2023-01-30T12:14:19.236Z,4.40
2023-01-30T12:19:43.111Z,5.20
2023-01-30T12:22:26.909Z,4.75
2023-01-30T12:25:00.087Z,4.90
2023-01-30T12:27:55.157Z,4.82
2023-01-30T12:33:10.740Z,4.78
2023-01-30T12:36:13.869Z,4.63
2023-01-30T12:38:58.231Z,5.60
2023-01-30T12:42:18.385Z,4.93
2023-01-30T12:45:13.586Z,5.45
2023-01-30T12:48:03.194Z,5.20
2023-01-30T12:50:55.717Z,5.85
2023-01-30T12:53:34.032Z,4.97
2023-01-30T12:56:26.172Z,4.72
2023-01-30T12:59:17.235Z,4.38
2023-01-30T13:02:25.451Z,4.78
2023-01-30T13:05:01.833Z,4.70
2023-01-30T13:07:48.205Z,4.53
2023-01-30T13:10:33.533Z,5.50
2023-01-30T13:13:43.151Z,4.47
2023-01-30T13:16:13.354Z,5.70
2023-01-30T13:18:45.416Z,5.88
2023-01-30T13:21:39.165Z,5.95
2023-01-30T13:24:40.636Z,5.32
2023-01-30T13:27:15.557Z,5.05
2023-01-30T13:29:44.421Z,4.88
2023-01-30T13:32:21.597Z,4.85
2023-01-30T13:34:50.300Z,5.00
2023-01-30T13:37:20.238Z,4.72
2023-01-30T13:40:01.040Z,4.07
2023-01-30T13:42:55.236Z,4.38
2023-01-30T13:45:27.244Z,5.70
2023-01-30T13:47:58.231Z,5.05
2023-01-30T13:51:03.338Z,5.35
2023-01-30T13:53:40.624Z,5.40
2023-01-30T13:56:39.546Z,5.22
2023-01-30T13:59:31.508Z,5.78
2023-01-30T14:02:08.471Z,5.57
2023-01-30T14:04:41.932Z,4.97
2023-01-30T14:07:10.156Z,5.05
2023-01-30T14:09:41.227Z,4.80
2023-01-30T14:12:22.728Z,4.30
2023-01-30T14:15:24.497Z,4.10
2023-01-30T14:18:02.539Z,4.82
2023-01-30T14:20:33.670Z,4.40
2023-01-30T14:23:19.184Z,4.47
2023-01-30T14:25:52.427Z,4.15
2023-01-30T14:28:20.100Z,4.40
2023-01-30T14:30:50.258Z,4.63
2023-01-30T14:33:23.895Z,4.30
2023-01-30T14:36:15.235Z,4.47
2023-01-30T14:38:44.688Z,4.30
2023-01-30T14:41:24.363Z,4.40
2023-01-30T14:43:53.947Z,4.00
2023-01-30T14:46:21.761Z,4.05
2023-01-30T14:48:53.533Z,4.45
2023-01-30T14:51:27.091Z,4.10
2023-01-30T14:54:03.385Z,4.28
2023-01-30T14:56:34.211Z,3.60
2023-01-30T14:59:06.100Z,3.33
2023-01-30T15:02:07.802Z,3.50
2023-01-30T15:05:04.175Z,3.15
2023-01-30T15:07:31.753Z,3.55
2023-01-30T15:10:13.446Z,3.30
2023-01-30T15:13:16.248Z,3.30
2023-01-30T15:15:43.680Z,3.30
2023-01-30T15:21:09.487Z,2.67
2023-01-30T15:23:55.322Z,2.75
2023-01-30T15:26:28.741Z,1.60
2023-01-30T15:29:24.270Z,1.50
2023-01-30T15:32:00.159Z,1.50
2023-01-30T15:34:29.771Z,1.40
2023-01-30T15:36:57.886Z,1.88
2023-01-30T15:39:27.406Z,1.35
2023-01-30T15:42:06.782Z,1.35
2023-01-30T15:44:34.236Z,1.10
2023-01-30T15:49:54.614Z,1.50
2023-01-30T15:52:28.982Z,1.40
2023-01-30T15:54:59.742Z,1.50
2023-01-30T15:57:31.615Z,1.65
2023-01-30T16:00:00.105Z,1.50
2023-01-30T16:02:36.393Z,1.55
2023-01-30T16:05:17.280Z,1.65
2023-01-30T16:07:48.032Z,2.00
2023-01-30T16:10:19.671Z,1.85
2023-01-30T16:12:49.395Z,2.20
2023-01-30T16:15:49.017Z,2.00
2023-01-30T16:18:50.051Z,1.48
2023-01-30T16:21:21.204Z,2.53
2023-01-30T16:24:06.677Z,1.85
2023-01-30T16:26:36.520Z,1.67
2023-01-30T16:29:14.021Z,1.90
2023-01-30T16:31:42.612Z,2.10
2023-01-30T16:34:30.683Z,1.83
2023-01-30T16:37:07.806Z,1.65
2023-01-30T16:42:27.875Z,2.22
2023-01-30T16:45:29.138Z,2.28
2023-01-30T16:48:16.421Z,2.38
2023-01-30T16:50:49.298Z,3.15
2023-01-30T16:53:22.405Z,3.00
2023-01-30T16:56:10.115Z,3.22
2023-01-30T17:01:08.226Z,2.80
2023-01-30T17:03:41.384Z,3.15
2023-01-30T17:06:31.555Z,2.78
2023-01-30T17:08:59.219Z,3.92
2023-01-30T17:11:34.634Z,3.60
2023-01-30T17:14:25.050Z,3.70
2023-01-30T17:17:12.105Z,3.75
2023-01-30T17:22:16.236Z,3.38
2023-01-30T17:24:43.976Z,3.65
2023-01-30T17:27:11.495Z,3.33
2023-01-30T17:29:43.063Z,4.03
2023-01-30T17:32:13.934Z,3.60
2023-01-30T17:34:41.723Z,3.50
2023-01-30T17:37:24.160Z,4.70
2023-01-30T17:39:51.721Z,4.65
2023-01-30T17:42:21.137Z,3.63
2023-01-30T17:44:48.935Z,3.25
2023-01-30T17:47:16.557Z,3.40
2023-01-30T17:49:44.356Z,3.97
2023-01-30T17:52:13.670Z,5.03
2023-01-30T17:54:41.572Z,3.45
2023-01-30T17:57:12.946Z,4.47
2023-01-30T17:59:40.367Z,3.45
2023-01-30T18:04:37.122Z,3.78
2023-01-30T18:09:33.921Z,4.90
2023-01-30T18:12:01.883Z,6.07
2023-01-30T18:14:29.490Z,5.38
2023-01-30T18:19:29.724Z,5.65
2023-01-30T18:21:58.530Z,6.15
2023-01-30T18:24:26.331Z,5.97
2023-01-30T18:26:53.805Z,5.18
2023-01-30T18:29:21.665Z,5.22
2023-01-30T18:31:49.459Z,5.18
2023-01-30T18:34:17.144Z,5.00
2023-01-30T18:39:12.709Z,6.72
2023-01-30T18:41:40.604Z,6.07
2023-01-30T18:44:08.045Z,5.50
2023-01-30T18:49:03.238Z,4.97
2023-01-30T18:51:34.091Z,5.88
2023-01-30T18:54:02.567Z,5.22
2023-01-30T18:56:33.380Z,6.43
2023-01-30T18:59:04.279Z,7.07
2023-01-30T19:01:35.647Z,10.30
2023-01-30T19:04:05.032Z,9.02
2023-01-30T19:06:35.413Z,10.93
2023-01-30T19:09:03.586Z,10.27
2023-01-30T19:11:50.176Z,9.95
2023-01-30T19:14:17.874Z,9.30
2023-01-30T19:16:45.356Z,10.70
2023-01-30T19:19:13.170Z,10.75
2023-01-30T19:21:40.729Z,10.35
2023-01-30T19:24:13.019Z,9.30
2023-01-30T19:26:40.810Z,10.65
2023-01-30T19:29:09.397Z,12.85
2023-01-30T19:31:37.479Z,11.52
2023-01-30T19:34:06.500Z,10.80
2023-01-30T19:36:36.256Z,8.13
2023-01-30T19:39:06.277Z,7.45
2023-01-30T19:41:36.003Z,7.90
2023-01-30T19:44:06.211Z,6.05
2023-01-30T19:46:34.292Z,6.10
2023-01-30T19:49:03.526Z,5.85
2023-01-30T19:51:34.838Z,6.03
2023-01-30T19:54:05.311Z,5.97
2023-01-30T19:56:33.967Z,8.20
2023-01-30T19:59:02.401Z,14.02
2023-01-30T20:01:33.039Z,19.15
2023-01-30T20:04:02.589Z,15.40
2023-01-30T20:06:32.066Z,9.70
2023-01-30T20:09:05.369Z,6.95
2023-01-30T20:11:37.443Z,7.00
2023-01-30T20:14:07.140Z,6.07
2023-01-30T20:16:35.916Z,5.43
2023-01-30T20:19:07.423Z,4.85
2023-01-30T20:21:36.146Z,4.68
2023-01-30T20:24:04.632Z,4.05
2023-01-30T20:26:35.389Z,3.85
2023-01-30T20:29:04.992Z,3.80
2023-01-30T20:31:34.936Z,4.25
2023-01-30T20:34:04.174Z,4.00
2023-01-30T20:36:31.676Z,4.13
2023-01-30T20:39:04.499Z,4.72
2023-01-30T20:41:33.585Z,4.60
2023-01-30T20:44:01.241Z,4.63
2023-01-30T20:46:31.673Z,4.10
2023-01-30T20:49:01.605Z,5.05
2023-01-30T20:51:32.178Z,3.90
2023-01-30T20:54:06.410Z,3.75
2023-01-30T20:56:37.282Z,4.20
2023-01-30T20:59:06.699Z,4.10
2023-01-30T21:01:34.685Z,4.22
2023-01-30T21:04:08.293Z,4.47
2023-01-30T21:06:42.062Z,4.38
2023-01-30T21:09:18.437Z,5.18
2023-01-30T21:11:46.224Z,5.65
2023-01-30T21:14:14.918Z,7.65
2023-01-30T21:16:42.762Z,7.40
2023-01-30T21:19:15.247Z,7.60
2023-01-30T21:21:53.459Z,8.88
2023-01-30T21:24:27.491Z,9.60
2023-01-30T21:26:55.744Z,8.23
2023-01-30T21:29:25.995Z,7.15
2023-01-30T21:31:54.103Z,6.97
2023-01-30T21:34:21.759Z,5.97
2023-01-30T21:37:09.607Z,6.10
2023-01-30T21:39:55.615Z,6.50
2023-01-30T21:42:44.851Z,6.50
2023-01-30T21:45:12.392Z,6.20
2023-01-30T21:50:08.134Z,6.38
2023-01-30T21:52:35.661Z,6.10
2023-01-30T21:55:03.533Z,6.45
2023-01-30T21:57:30.966Z,6.25
2023-01-30T21:59:58.449Z,5.90
2023-01-30T22:04:53.399Z,6.47
2023-01-30T22:07:20.868Z,6.40
2023-01-30T22:09:49.006Z,5.68
2023-01-30T22:12:16.515Z,6.72
2023-01-30T22:14:43.987Z,5.25
2023-01-30T22:19:38.616Z,4.40
2023-01-30T22:24:33.697Z,3.65
2023-01-30T22:27:01.167Z,4.22
2023-01-30T22:29:29.255Z,3.78
2023-01-30T22:31:56.717Z,4.05
2023-01-30T22:34:24.440Z,3.50
2023-01-30T22:36:52.024Z,3.58
2023-01-30T22:39:20.028Z,3.88
2023-01-30T22:41:47.449Z,3.78
2023-01-30T22:44:15.017Z,3.70
2023-01-30T22:46:42.617Z,4.63
2023-01-30T22:49:10.369Z,3.88
2023-01-30T22:51:40.869Z,3.85
2023-01-30T22:54:17.316Z,3.55
2023-01-30T22:56:49.219Z,3.57
2023-01-30T22:59:17.041Z,3.50
2023-01-30T23:01:47.080Z,4.13
2023-01-30T23:04:17.731Z,3.67
2023-01-30T23:06:46.089Z,3.70
2023-01-30T23:09:22.684Z,2.95
2023-01-30T23:12:13.867Z,3.30
2023-01-30T23:14:42.943Z,3.03
2023-01-30T23:17:28.838Z,2.92
2023-01-30T23:19:56.949Z,3.63
2023-01-30T23:22:24.660Z,2.70
2023-01-30T23:24:54.993Z,2.40
2023-01-30T23:27:22.531Z,2.67
2023-01-30T23:29:49.959Z,2.28
2023-01-30T23:32:20.395Z,2.40
2023-01-30T23:34:48.385Z,2.20
2023-01-30T23:37:16.720Z,2.10
2023-01-30T23:39:45.202Z,2.72
2023-01-30T23:42:12.666Z,2.35
2023-01-30T23:47:07.681Z,2.45
2023-01-30T23:52:02.993Z,1.80
2023-01-30T23:54:30.611Z,2.47
2023-01-30T23:56:58.136Z,2.10
